createdAt,value
2024-05-09T00:00:48.491Z,10.40
2024-05-09T00:03:37.289Z,10.29
2024-05-09T00:06:08.094Z,10.23
2024-05-09T00:08:36.683Z,10.19
2024-05-09T00:11:05.243Z,10.19
2024-05-09T00:13:33.683Z,10.16
2024-05-09T00:16:02.128Z,10.14
2024-05-09T00:18:30.625Z,10.16
2024-05-09T00:20:59.736Z,10.18
2024-05-09T00:23:28.771Z,10.17
2024-05-09T00:25:57.156Z,10.17
2024-05-09T00:28:25.908Z,10.14
2024-05-09T00:30:54.144Z,10.08
2024-05-09T00:33:23.159Z,10.02
2024-05-09T00:35:52.775Z,10.05
2024-05-09T00:38:21.243Z,10.01
2024-05-09T00:40:49.695Z,10.01
2024-05-09T00:43:18.002Z,9.99
2024-05-09T00:45:47.240Z,10.04
2024-05-09T00:48:19.801Z,10.08
2024-05-09T00:50:50.955Z,10.08
2024-05-09T00:53:19.669Z,10.11
2024-05-09T00:55:48.350Z,10.12
2024-05-09T00:58:20.937Z,10.11
2024-05-09T01:00:50.618Z,10.08
2024-05-09T01:03:20.387Z,10.05
2024-05-09T01:05:50.140Z,10.00
2024-05-09T01:08:18.828Z,9.98
2024-05-09T01:10:48.563Z,9.85
2024-05-09T01:13:17.399Z,9.69
2024-05-09T01:15:48.105Z,9.58
2024-05-09T01:18:17.074Z,9.50
2024-05-09T01:20:45.811Z,9.43
2024-05-09T01:23:15.929Z,9.37
2024-05-09T01:25:46.409Z,9.37
2024-05-09T01:28:16.196Z,9.40
2024-05-09T01:30:44.707Z,9.40
2024-05-09T01:33:13.508Z,9.44
2024-05-09T01:35:43.121Z,9.46
2024-05-09T01:38:17.248Z,9.45
2024-05-09T01:40:47.341Z,9.46
2024-05-09T01:43:16.214Z,9.46
2024-05-09T01:45:44.699Z,9.49
2024-05-09T01:48:13.368Z,9.50
2024-05-09T01:50:43.261Z,9.53
2024-05-09T01:53:14.917Z,9.57
2024-05-09T01:55:44.575Z,9.58
2024-05-09T01:58:13.178Z,9.62
2024-05-09T02:00:43.412Z,9.65
2024-05-09T02:03:15.915Z,9.63
2024-05-09T02:05:49.803Z,9.61
2024-05-09T02:08:20.176Z,9.59
2024-05-09T02:10:50.348Z,9.52
2024-05-09T02:13:19.461Z,9.49
2024-05-09T02:15:52.127Z,9.50
2024-05-09T02:18:20.835Z,9.43
2024-05-09T02:20:49.531Z,9.38
2024-05-09T02:23:18.335Z,9.35
2024-05-09T02:25:47.732Z,9.39
2024-05-09T02:28:16.125Z,9.42
2024-05-09T02:30:44.327Z,9.46
2024-05-09T02:33:14.257Z,9.49
2024-05-09T02:35:44.245Z,9.50
2024-05-09T02:38:13.726Z,9.55
2024-05-09T02:40:43.608Z,9.59
2024-05-09T02:43:13.040Z,9.59
2024-05-09T02:45:42.006Z,9.58
2024-05-09T02:48:12.410Z,9.56
2024-05-09T02:50:42.262Z,9.55
2024-05-09T02:53:14.855Z,9.53
2024-05-09T02:55:43.593Z,9.53
2024-05-09T02:58:12.238Z,9.50
2024-05-09T03:00:42.419Z,9.46
2024-05-09T03:03:14.250Z,9.47
2024-05-09T03:05:47.153Z,9.51
2024-05-09T03:08:15.802Z,9.50
2024-05-09T03:10:44.354Z,9.47
2024-05-09T03:13:15.459Z,9.46
2024-05-09T03:15:45.551Z,9.41
2024-05-09T03:18:15.789Z,9.36
2024-05-09T03:20:44.977Z,9.30
2024-05-09T03:23:13.512Z,9.30
2024-05-09T03:25:41.968Z,9.33
2024-05-09T03:28:11.394Z,9.34
2024-05-09T03:30:46.613Z,9.34
2024-05-09T03:33:29.214Z,9.41
2024-05-09T03:35:58.048Z,9.48
2024-05-09T03:38:26.536Z,9.53
2024-05-09T03:40:55.190Z,9.56
2024-05-09T03:43:23.934Z,9.62
2024-05-09T03:45:52.519Z,9.60
2024-05-09T03:48:21.637Z,9.56
2024-05-09T03:50:50.862Z,9.60
2024-05-09T03:53:19.287Z,9.60
2024-05-09T03:55:48.795Z,9.61
2024-05-09T03:58:19.034Z,9.62
2024-05-09T04:00:47.500Z,9.64
2024-05-09T04:03:16.360Z,9.65
2024-05-09T04:05:46.736Z,9.56
2024-05-09T04:08:16.382Z,9.55
2024-05-09T04:10:45.983Z,9.54
2024-05-09T04:13:14.802Z,9.50
2024-05-09T04:15:43.287Z,9.47
2024-05-09T04:18:12.780Z,9.48
2024-05-09T04:20:41.730Z,9.52
2024-05-09T04:23:14.868Z,9.55
2024-05-09T04:25:45.348Z,9.61
2024-05-09T04:28:14.659Z,9.68
2024-05-09T04:30:43.637Z,9.76
2024-05-09T04:33:15.050Z,9.81
2024-05-09T04:35:44.580Z,9.86
2024-05-09T04:38:14.688Z,9.90
2024-05-09T04:40:43.947Z,9.98
2024-05-09T04:43:18.572Z,10.04
2024-05-09T04:45:47.379Z,10.07
2024-05-09T04:48:16.982Z,10.10
2024-05-09T04:50:45.894Z,10.09
2024-05-09T04:53:18.854Z,10.06
2024-05-09T04:55:47.546Z,10.13
2024-05-09T04:58:16.184Z,10.07
2024-05-09T05:00:44.600Z,9.99
2024-05-09T05:03:15.285Z,9.96
2024-05-09T05:05:47.140Z,9.91
2024-05-09T05:08:17.990Z,9.85
2024-05-09T05:10:49.000Z,9.84
2024-05-09T05:13:22.731Z,9.88
2024-05-09T05:15:57.285Z,9.93
2024-05-09T05:18:28.305Z,9.91
2024-05-09T05:20:59.261Z,9.95
2024-05-09T05:23:28.206Z,9.98
2024-05-09T05:25:57.251Z,10.09
2024-05-09T05:28:25.694Z,10.11
2024-05-09T05:30:54.080Z,10.18
2024-05-09T05:33:23.173Z,10.25
2024-05-09T05:35:52.046Z,10.38
2024-05-09T05:38:23.865Z,10.49
2024-05-09T05:40:55.212Z,10.62
2024-05-09T05:43:23.952Z,10.75
2024-05-09T05:45:52.215Z,10.86
2024-05-09T05:48:22.358Z,10.95
2024-05-09T05:50:52.775Z,11.02
2024-05-09T05:53:21.231Z,11.07
2024-05-09T05:55:49.620Z,11.10
2024-05-09T05:58:20.382Z,11.13
2024-05-09T06:00:48.923Z,11.19
2024-05-09T06:03:17.482Z,11.28
2024-05-09T06:05:46.595Z,11.34
2024-05-09T06:08:15.364Z,11.37
2024-05-09T06:10:43.993Z,11.43
2024-05-09T06:13:14.325Z,11.51
2024-05-09T06:15:43.957Z,11.54
2024-05-09T06:18:14.658Z,11.54
2024-05-09T06:20:44.276Z,11.56
2024-05-09T06:23:14.365Z,11.52
2024-05-09T06:25:43.872Z,11.51
2024-05-09T06:28:12.346Z,11.65
2024-05-09T06:30:42.349Z,11.75
2024-05-09T06:33:14.134Z,11.87
2024-05-09T06:35:47.096Z,11.99
2024-05-09T06:38:15.802Z,12.07
2024-05-09T06:40:44.778Z,12.05
2024-05-09T06:43:16.576Z,12.12
2024-05-09T06:45:48.583Z,12.22
2024-05-09T06:48:19.722Z,12.25
2024-05-09T06:50:48.701Z,12.16
2024-05-09T06:53:22.433Z,12.28
2024-05-09T06:55:50.827Z,12.28
2024-05-09T06:58:19.370Z,12.29
2024-05-09T07:00:47.736Z,12.48
2024-05-09T07:03:18.251Z,12.75
2024-05-09T07:05:49.237Z,12.96
2024-05-09T07:08:18.882Z,13.08
2024-05-09T07:10:48.011Z,13.19
2024-05-09T07:13:16.906Z,13.27
2024-05-09T07:15:45.212Z,13.39
2024-05-09T07:18:17.308Z,13.55
2024-05-09T07:20:48.064Z,13.66
2024-05-09T07:23:17.169Z,13.84
2024-05-09T07:25:46.398Z,13.97
2024-05-09T07:28:16.767Z,14.12
2024-05-09T07:30:45.913Z,14.13
2024-05-09T07:33:23.011Z,14.11
2024-05-09T07:35:53.070Z,14.24
2024-05-09T07:38:22.114Z,14.37
2024-05-09T07:40:50.765Z,14.46
2024-05-09T07:43:19.348Z,14.44
2024-05-09T07:45:53.031Z,14.50
2024-05-09T07:52:39.318Z,14.76
2024-05-09T07:53:49.510Z,14.81
2024-05-09T07:56:22.838Z,14.83
2024-05-09T07:58:56.312Z,14.91
2024-05-09T08:01:26.627Z,14.93
2024-05-09T08:03:56.126Z,15.12
2024-05-09T08:06:25.578Z,15.30
2024-05-09T08:08:54.376Z,15.39
2024-05-09T08:11:23.804Z,15.50
2024-05-09T08:13:52.302Z,15.63
2024-05-09T08:16:21.081Z,15.64
2024-05-09T08:18:50.350Z,15.69
2024-05-09T08:21:19.527Z,15.81
2024-05-09T08:23:47.952Z,15.92
2024-05-09T08:26:16.628Z,15.97
2024-05-09T08:28:45.276Z,16.06
2024-05-09T08:31:13.908Z,16.16
2024-05-09T08:33:49.211Z,16.20
2024-05-09T08:36:17.743Z,16.32
2024-05-09T08:38:46.062Z,16.38
2024-05-09T08:41:15.942Z,16.28
2024-05-09T08:43:44.564Z,16.47
2024-05-09T08:46:14.962Z,16.69
2024-05-09T08:48:45.693Z,16.75
2024-05-09T08:51:14.450Z,16.86
2024-05-09T08:53:42.947Z,17.09
2024-05-09T08:56:11.909Z,17.17
2024-05-09T08:58:42.008Z,17.23
2024-05-09T09:01:18.041Z,17.30
2024-05-09T09:03:49.010Z,17.43
2024-05-09T09:06:25.152Z,17.52
2024-05-09T09:09:14.898Z,17.71
2024-05-09T09:11:44.541Z,17.80
2024-05-09T09:14:13.106Z,17.96
2024-05-09T09:16:41.520Z,18.18
2024-05-09T09:19:10.174Z,18.40
2024-05-09T09:21:38.707Z,18.49
2024-05-09T09:24:09.970Z,18.71
2024-05-09T09:26:39.864Z,18.87
2024-05-09T09:29:08.697Z,18.97
2024-05-09T09:31:39.232Z,19.06
2024-05-09T09:34:09.216Z,19.21
2024-05-09T09:36:44.520Z,19.22
2024-05-09T09:39:17.463Z,19.09
2024-05-09T09:41:48.160Z,18.99
2024-05-09T09:44:19.498Z,18.82
2024-05-09T09:46:51.589Z,18.63
2024-05-09T09:49:23.118Z,18.51
2024-05-09T09:51:52.456Z,18.59
2024-05-09T09:54:22.040Z,18.66
2024-05-09T09:56:52.436Z,18.77
2024-05-09T09:59:22.013Z,18.84
2024-05-09T10:01:50.649Z,18.93
2024-05-09T10:04:21.808Z,19.04
2024-05-09T10:06:59.654Z,18.96
2024-05-09T10:09:29.848Z,18.80
2024-05-09T10:12:11.063Z,18.88
2024-05-09T10:14:45.260Z,18.99
2024-05-09T10:17:13.947Z,18.91
2024-05-09T10:19:46.629Z,18.79
2024-05-09T10:22:28.574Z,18.91
2024-05-09T10:25:05.801Z,18.94
2024-05-09T10:27:34.506Z,18.99
2024-05-09T10:30:11.497Z,18.87
2024-05-09T10:32:45.047Z,18.79
2024-05-09T10:35:19.534Z,18.77
2024-05-09T10:37:48.326Z,18.84
2024-05-09T10:40:26.008Z,18.74
2024-05-09T10:43:02.608Z,18.62
2024-05-09T10:45:36.035Z,18.53
2024-05-09T10:48:07.147Z,18.55
2024-05-09T10:50:36.317Z,18.64
2024-05-09T10:53:05.075Z,18.77
2024-05-09T10:55:33.714Z,18.83
2024-05-09T10:58:02.571Z,18.89
2024-05-09T11:03:02.047Z,19.14
2024-05-09T11:05:31.419Z,19.47
2024-05-09T11:08:00.423Z,19.75
2024-05-09T11:10:33.776Z,20.01
2024-05-09T11:13:03.223Z,20.06
2024-05-09T11:15:48.299Z,19.86
2024-05-09T11:18:25.654Z,19.56
2024-05-09T11:20:57.010Z,19.17
2024-05-09T11:23:27.652Z,19.06
2024-05-09T11:25:58.297Z,18.99
2024-05-09T11:28:30.262Z,18.99
2024-05-09T11:34:42.188Z,19.87
2024-05-09T11:37:13.304Z,20.43
2024-05-09T11:39:04.173Z,19.09
2024-05-09T11:39:42.055Z,20.84
2024-05-09T11:42:10.767Z,21.08
2024-05-09T11:44:39.351Z,21.25
2024-05-09T11:47:07.814Z,21.24
2024-05-09T11:49:36.285Z,21.22
2024-05-09T11:52:05.310Z,21.25
2024-05-09T11:54:33.882Z,21.13
2024-05-09T11:57:02.405Z,21.02
2024-05-09T11:59:31.221Z,20.92
2024-05-09T12:01:59.760Z,20.70
2024-05-09T12:04:30.874Z,20.62
2024-05-09T12:06:59.786Z,20.98
2024-05-09T12:09:28.677Z,22.00
2024-05-09T12:11:57.286Z,23.05
2024-05-09T12:14:26.305Z,23.63
2024-05-09T12:16:54.880Z,23.93
2024-05-09T12:19:23.642Z,24.44
2024-05-09T12:21:52.793Z,24.58
2024-05-09T12:24:21.444Z,25.12
2024-05-09T12:26:50.133Z,25.22
2024-05-09T12:29:18.973Z,25.16
2024-05-09T12:31:48.369Z,25.24
2024-05-09T12:34:17.200Z,25.69
2024-05-09T12:36:46.197Z,25.82
2024-05-09T12:39:19.255Z,25.94
2024-05-09T12:41:47.874Z,25.20
2024-05-09T12:45:10.190Z,24.61
2024-05-09T12:47:39.863Z,24.42
2024-05-09T12:50:15.738Z,24.73
2024-05-09T12:52:50.215Z,25.15
2024-05-09T12:55:18.736Z,25.46
2024-05-09T12:57:47.801Z,25.39
2024-05-09T13:00:23.904Z,25.07
2024-05-09T13:02:56.795Z,25.21
2024-05-09T13:05:26.201Z,25.07
2024-05-09T13:07:57.194Z,24.69
2024-05-09T13:10:32.059Z,24.54
2024-05-09T13:13:02.389Z,24.75
2024-05-09T13:15:51.181Z,25.56
2024-05-09T13:18:20.084Z,26.21
2024-05-09T13:20:55.983Z,25.79
2024-05-09T13:23:42.210Z,26.41
2024-05-09T13:26:10.948Z,26.53
2024-05-09T13:28:40.249Z,26.84
2024-05-09T13:31:08.831Z,26.71
2024-05-09T13:33:37.513Z,26.41
2024-05-09T13:36:07.824Z,25.71
2024-05-09T13:38:36.714Z,25.20
2024-05-09T13:41:05.249Z,24.67
2024-05-09T13:43:33.741Z,24.30
2024-05-09T13:46:02.301Z,23.99
2024-05-09T13:48:31.658Z,23.85
2024-05-09T13:51:00.601Z,23.87
2024-05-09T13:53:38.999Z,25.02
2024-05-09T13:56:10.142Z,26.19
2024-05-09T13:58:39.208Z,27.14
2024-05-09T14:01:07.921Z,27.92
2024-05-09T14:03:36.798Z,28.57
2024-05-09T14:06:09.424Z,28.52
2024-05-09T14:08:39.610Z,28.22
2024-05-09T14:11:08.336Z,28.43
2024-05-09T14:13:36.852Z,28.60
2024-05-09T14:16:06.082Z,27.51
2024-05-09T14:18:37.621Z,26.29
2024-05-09T14:21:07.165Z,26.06
2024-05-09T14:23:35.608Z,25.83
2024-05-09T14:26:04.531Z,25.83
2024-05-09T14:28:33.003Z,26.40
2024-05-09T14:31:02.788Z,27.56
2024-05-09T14:33:45.301Z,27.93
2024-05-09T14:36:13.907Z,28.18
2024-05-09T14:38:42.390Z,28.90
2024-05-09T14:41:13.769Z,29.86
2024-05-09T14:43:42.552Z,30.56
2024-05-09T14:46:11.130Z,30.46
2024-05-09T14:48:41.187Z,29.52
2024-05-09T14:51:11.622Z,28.93
2024-05-09T14:53:44.714Z,28.15
2024-05-09T14:56:14.992Z,28.14
2024-05-09T14:58:43.935Z,28.01
2024-05-09T15:01:13.035Z,27.08
2024-05-09T15:03:41.745Z,25.98
2024-05-09T15:06:13.140Z,25.20
2024-05-09T15:08:44.994Z,24.42
2024-05-09T15:11:14.199Z,23.46
2024-05-09T15:13:44.121Z,22.74
2024-05-09T15:16:17.709Z,22.29
2024-05-09T15:18:46.929Z,21.89
2024-05-09T15:21:15.996Z,21.52
2024-05-09T15:23:44.563Z,21.32
2024-05-09T15:26:12.975Z,21.08
2024-05-09T15:28:41.873Z,20.74
2024-05-09T15:31:10.334Z,20.48
2024-05-09T15:33:43.856Z,20.20
2024-05-09T15:36:13.094Z,19.94
2024-05-09T15:38:45.444Z,19.71
2024-05-09T15:41:15.138Z,19.55
2024-05-09T15:43:51.921Z,19.41
2024-05-09T15:46:21.848Z,19.18
2024-05-09T15:48:51.539Z,19.04
2024-05-09T15:51:22.172Z,18.95
2024-05-09T15:53:51.668Z,18.80
2024-05-09T15:56:20.511Z,18.63
2024-05-09T15:58:50.003Z,18.49
2024-05-09T16:01:18.535Z,18.36
2024-05-09T16:03:52.985Z,18.25
2024-05-09T16:06:23.128Z,18.12
2024-05-09T16:08:51.780Z,18.01
2024-05-09T16:11:20.774Z,17.88
2024-05-09T16:14:15.369Z,17.76
2024-05-09T16:16:47.850Z,17.61
2024-05-09T16:19:17.472Z,17.48
2024-05-09T16:21:46.121Z,17.30
2024-05-09T16:24:15.097Z,17.24
2024-05-09T16:26:43.740Z,17.14
2024-05-09T16:29:15.376Z,17.01
2024-05-09T16:31:45.219Z,16.87
2024-05-09T16:34:14.067Z,16.76
2024-05-09T16:36:44.002Z,16.66
2024-05-09T16:39:13.695Z,16.58
2024-05-09T16:41:42.482Z,16.53
2024-05-09T16:44:11.063Z,16.53
2024-05-09T16:46:39.851Z,16.55
2024-05-09T16:49:11.515Z,16.47
2024-05-09T16:51:40.371Z,16.42
2024-05-09T16:54:09.136Z,16.42
2024-05-09T16:56:38.687Z,16.41
2024-05-09T16:59:07.577Z,16.31
2024-05-09T17:01:36.749Z,16.19
2024-05-09T17:04:06.566Z,16.13
2024-05-09T17:06:35.542Z,15.97
2024-05-09T17:09:11.795Z,15.79
2024-05-09T17:11:44.586Z,15.67
2024-05-09T17:14:15.049Z,15.56
2024-05-09T17:16:46.400Z,15.46
2024-05-09T17:19:15.570Z,15.33
2024-05-09T17:21:44.726Z,15.22
2024-05-09T17:24:13.956Z,15.09
2024-05-09T17:26:42.689Z,14.94
2024-05-09T17:29:12.592Z,14.81
2024-05-09T17:31:41.320Z,14.67
2024-05-09T17:34:11.045Z,14.48
2024-05-09T17:36:39.717Z,14.30
2024-05-09T17:39:13.750Z,14.15
2024-05-09T17:41:45.783Z,13.96
2024-05-09T17:44:53.634Z,13.79
2024-05-09T17:48:24.453Z,13.65
2024-05-09T17:51:04.754Z,13.48
2024-05-09T17:53:34.483Z,13.33
2024-05-09T17:56:14.431Z,13.23
2024-05-09T17:58:51.950Z,13.10
2024-05-09T18:01:21.082Z,12.98
2024-05-09T18:03:50.191Z,12.87
2024-05-09T18:06:19.382Z,12.75
2024-05-09T18:08:48.155Z,12.62
2024-05-09T18:11:17.604Z,12.51
2024-05-09T18:13:47.586Z,12.41
2024-05-09T18:16:17.298Z,12.33
2024-05-09T18:18:46.976Z,12.27
2024-05-09T18:21:27.603Z,12.20
2024-05-09T18:23:58.757Z,12.11
2024-05-09T18:26:30.332Z,12.02
2024-05-09T18:28:58.977Z,12.00
2024-05-09T18:31:27.648Z,11.95
2024-05-09T18:33:56.105Z,11.90
2024-05-09T18:36:28.408Z,11.84
2024-05-09T18:38:59.336Z,11.79
2024-05-09T18:41:29.019Z,11.74
2024-05-09T18:43:57.687Z,11.64
2024-05-09T18:46:34.168Z,11.55
2024-05-09T18:49:06.198Z,11.48
2024-05-09T18:51:35.286Z,11.41
2024-05-09T18:54:05.446Z,11.36
2024-05-09T18:56:34.160Z,11.30
2024-05-09T18:59:02.452Z,11.25
2024-05-09T19:01:31.283Z,11.18
2024-05-09T19:03:59.975Z,11.10
2024-05-09T19:06:38.045Z,10.99
2024-05-09T19:09:14.353Z,10.85
2024-05-09T19:11:43.268Z,10.81
2024-05-09T19:14:14.683Z,10.74
2024-05-09T19:16:43.274Z,10.67
2024-05-09T19:19:11.783Z,10.61
2024-05-09T19:21:42.621Z,10.56
2024-05-09T19:24:17.023Z,10.52
2024-05-09T19:26:48.358Z,10.47
2024-05-09T19:29:17.007Z,10.42
2024-05-09T19:31:45.654Z,10.38
2024-05-09T19:34:14.165Z,10.33
2024-05-09T19:36:46.525Z,10.28
2024-05-09T19:39:15.405Z,10.26
2024-05-09T19:41:43.888Z,10.24
2024-05-09T19:44:12.319Z,10.22
2024-05-09T19:46:40.911Z,10.20
2024-05-09T19:49:09.837Z,10.16
2024-05-09T19:51:39.040Z,10.12
2024-05-09T19:54:07.585Z,10.06
2024-05-09T19:56:36.118Z,10.01
2024-05-09T19:59:04.769Z,9.97
2024-05-09T20:01:33.628Z,9.95
2024-05-09T20:04:05.908Z,9.92
2024-05-09T20:06:48.407Z,9.86
2024-05-09T20:09:17.661Z,9.83
2024-05-09T20:11:46.599Z,9.78
2024-05-09T20:14:15.553Z,9.71
2024-05-09T20:16:45.262Z,9.64
2024-05-09T20:19:18.713Z,9.63
2024-05-09T20:21:52.396Z,9.59
2024-05-09T20:24:22.083Z,9.56
2024-05-09T20:30:32.475Z,9.48
2024-05-09T20:33:04.944Z,9.44
2024-05-09T20:35:35.150Z,9.39
2024-05-09T20:42:31.416Z,9.28
2024-05-09T20:45:00.255Z,9.27
2024-05-09T20:48:00.024Z,9.24
2024-05-09T20:50:45.359Z,9.17
2024-05-09T20:53:19.445Z,9.12
2024-05-09T20:56:41.905Z,9.04
2024-05-09T20:59:48.031Z,9.02
2024-05-09T21:02:36.723Z,8.95
2024-05-09T21:05:09.646Z,8.95
2024-05-09T21:07:44.788Z,8.91
2024-05-09T21:14:37.493Z,8.80
2024-05-09T21:17:22.465Z,8.74
2024-05-09T21:20:17.443Z,8.67
2024-05-09T21:22:49.287Z,8.64
2024-05-09T21:25:18.498Z,8.61
2024-05-09T21:27:51.881Z,8.59
2024-05-09T21:30:32.161Z,8.58
2024-05-09T21:33:11.277Z,8.55
2024-05-09T21:35:43.280Z,8.52
2024-05-09T21:38:15.821Z,8.49
2024-05-09T21:40:45.437Z,8.46
2024-05-09T21:43:14.499Z,8.43
2024-05-09T21:45:46.924Z,8.41
2024-05-09T21:48:15.865Z,8.40
2024-05-09T21:51:06.270Z,8.37
2024-05-09T21:53:37.723Z,8.32
2024-05-09T21:56:14.250Z,8.31
2024-05-09T21:58:44.141Z,8.27
2024-05-09T22:01:12.732Z,8.24
2024-05-09T22:03:41.797Z,8.21
2024-05-09T22:06:10.651Z,8.21
2024-05-09T22:09:14.621Z,8.20
2024-05-09T22:11:43.356Z,8.14
2024-05-09T22:14:12.042Z,8.15
2024-05-09T22:16:41.443Z,8.08
2024-05-09T22:19:10.084Z,8.06
2024-05-09T22:21:38.734Z,8.04
2024-05-09T22:24:07.376Z,8.03
2024-05-09T22:26:38.869Z,8.03
2024-05-09T22:29:07.079Z,8.01
2024-05-09T22:31:35.538Z,8.00
2024-05-09T22:34:04.435Z,7.97
2024-05-09T22:36:34.373Z,7.98
2024-05-09T22:39:03.099Z,7.99
2024-05-09T22:41:32.342Z,7.99
2024-05-09T22:44:02.076Z,7.99
2024-05-09T22:46:30.603Z,7.98
2024-05-09T22:48:59.041Z,7.94
2024-05-09T22:51:27.683Z,7.91
2024-05-09T22:53:56.588Z,7.90
2024-05-09T22:56:29.191Z,7.89
2024-05-09T22:58:57.843Z,7.87
2024-05-09T23:01:27.356Z,7.84
2024-05-09T23:03:56.064Z,7.81
2024-05-09T23:06:24.940Z,7.78
2024-05-09T23:08:53.456Z,7.77
2024-05-09T23:11:22.589Z,7.76
2024-05-09T23:13:51.278Z,7.75
2024-05-09T23:16:19.857Z,7.72
2024-05-09T23:18:48.494Z,7.71
2024-05-09T23:21:56.806Z,7.69
2024-05-09T23:24:25.443Z,7.67
2024-05-09T23:26:53.963Z,7.68
2024-05-09T23:29:23.716Z,7.68
2024-05-09T23:31:52.370Z,7.65
2024-05-09T23:34:21.284Z,7.64
2024-05-09T23:36:50.437Z,7.62
2024-05-09T23:39:18.882Z,7.59
2024-05-09T23:41:47.432Z,7.59
2024-05-09T23:44:16.160Z,7.59
2024-05-09T23:46:44.699Z,7.59
2024-05-09T23:49:14.128Z,7.58
2024-05-09T23:51:42.826Z,7.55
2024-05-09T23:54:11.484Z,7.52
2024-05-09T23:56:40.179Z,7.50
2024-05-09T23:59:08.824Z,7.49
